createdAt,value
2023-06-06T00:00:20.087Z,14.77
2023-06-06T00:02:52.593Z,14.71
2023-06-06T00:05:27.665Z,14.67
2023-06-06T00:08:00.240Z,14.55
2023-06-06T00:10:32.768Z,14.55
2023-06-06T00:13:05.083Z,14.60
2023-06-06T00:15:39.473Z,14.67
2023-06-06T00:18:12.351Z,14.63
2023-06-06T00:20:45.252Z,14.60
2023-06-06T00:23:17.967Z,14.57
2023-06-06T00:25:51.417Z,14.55
2023-06-06T00:28:23.761Z,14.62
2023-06-06T00:30:58.084Z,14.57
2023-06-06T00:33:30.437Z,14.40
2023-06-06T00:36:03.169Z,14.41
2023-06-06T00:38:35.831Z,14.39
2023-06-06T00:41:08.378Z,14.45
2023-06-06T00:43:41.119Z,14.45
2023-06-06T00:46:16.669Z,14.41
2023-06-06T00:48:49.854Z,14.37
2023-06-06T00:51:22.516Z,14.38
2023-06-06T00:53:58.177Z,14.39
2023-06-06T00:56:31.096Z,14.25
2023-06-06T00:59:04.535Z,14.23
2023-06-06T01:01:39.609Z,14.22
2023-06-06T01:04:13.006Z,14.23
2023-06-06T01:06:46.909Z,14.18
2023-06-06T01:09:21.940Z,14.13
2023-06-06T01:12:04.139Z,14.10
2023-06-06T01:14:45.387Z,14.07
2023-06-06T01:17:19.810Z,14.05
2023-06-06T01:19:52.936Z,13.99
2023-06-06T01:22:27.828Z,14.05
2023-06-06T01:25:00.285Z,14.05
2023-06-06T01:27:33.894Z,14.01
2023-06-06T01:30:08.324Z,13.90
2023-06-06T01:32:49.425Z,13.91
2023-06-06T01:35:29.231Z,13.80
2023-06-06T01:38:09.101Z,13.76
2023-06-06T01:40:43.421Z,13.69
2023-06-06T01:43:17.259Z,13.72
2023-06-06T01:45:51.630Z,13.68
2023-06-06T01:48:25.598Z,13.65
2023-06-06T01:50:57.992Z,13.62
2023-06-06T01:53:30.997Z,13.63
2023-06-06T01:56:03.454Z,13.65
2023-06-06T01:58:36.112Z,13.54
2023-06-06T02:01:09.210Z,13.48
2023-06-06T02:03:41.923Z,13.36
2023-06-06T02:06:14.379Z,13.40
2023-06-06T02:08:48.125Z,13.34
2023-06-06T02:11:23.465Z,13.38
2023-06-06T02:13:57.553Z,13.39
2023-06-06T02:16:30.264Z,13.34
2023-06-06T02:19:02.882Z,13.26
2023-06-06T02:21:35.759Z,13.25
2023-06-06T02:24:08.995Z,13.24
2023-06-06T02:26:42.893Z,13.26
2023-06-06T02:29:15.841Z,13.28
2023-06-06T02:31:48.663Z,13.23
2023-06-06T02:34:22.096Z,13.19
2023-06-06T02:36:54.554Z,13.15
2023-06-06T02:39:27.537Z,13.11
2023-06-06T02:42:00.080Z,13.05
2023-06-06T02:44:33.188Z,12.82
2023-06-06T02:47:06.276Z,12.87
2023-06-06T02:49:38.648Z,12.84
2023-06-06T02:52:11.775Z,12.81
2023-06-06T02:54:44.818Z,12.78
2023-06-06T02:57:17.311Z,12.72
2023-06-06T02:59:49.694Z,12.77
2023-06-06T03:02:22.083Z,12.68
2023-06-06T03:04:56.602Z,12.63
2023-06-06T03:07:28.959Z,12.57
2023-06-06T03:10:01.937Z,12.55
2023-06-06T03:12:40.612Z,12.50
2023-06-06T03:15:12.962Z,12.51
2023-06-06T03:17:49.463Z,12.47
2023-06-06T03:20:22.823Z,12.47
2023-06-06T03:23:19.023Z,12.43
2023-06-06T03:25:52.193Z,12.44
2023-06-06T03:28:24.740Z,12.45
2023-06-06T03:30:59.248Z,12.48
2023-06-06T03:33:33.234Z,12.50
2023-06-06T03:36:07.985Z,12.51
2023-06-06T03:38:40.675Z,12.53
2023-06-06T03:41:14.675Z,12.53
2023-06-06T03:43:47.543Z,12.45
2023-06-06T03:46:21.109Z,12.41
2023-06-06T03:48:53.842Z,12.37
2023-06-06T03:51:26.179Z,12.37
2023-06-06T03:53:58.503Z,12.36
2023-06-06T03:56:32.706Z,12.40
2023-06-06T03:59:06.360Z,12.40
2023-06-06T04:01:38.710Z,12.46
2023-06-06T04:04:14.193Z,12.52
2023-06-06T04:06:46.520Z,12.53
2023-06-06T04:09:18.866Z,12.41
2023-06-06T04:11:51.924Z,12.42
2023-06-06T04:14:24.684Z,12.51
2023-06-06T04:16:57.327Z,12.60
2023-06-06T04:19:30.849Z,12.67
2023-06-06T04:22:05.517Z,12.72
2023-06-06T04:24:37.828Z,12.84
2023-06-06T04:27:11.089Z,12.89
2023-06-06T04:29:45.350Z,12.91
2023-06-06T04:32:19.911Z,13.01
2023-06-06T04:34:57.839Z,12.87
2023-06-06T04:37:32.617Z,12.91
2023-06-06T04:40:07.738Z,12.95
2023-06-06T04:42:41.271Z,12.95
2023-06-06T04:45:13.705Z,13.07
2023-06-06T04:47:46.093Z,12.95
2023-06-06T04:50:20.382Z,12.89
2023-06-06T04:52:53.175Z,13.03
2023-06-06T04:55:27.974Z,13.08
2023-06-06T04:58:03.341Z,13.03
2023-06-06T05:00:36.175Z,13.14
2023-06-06T05:03:08.593Z,13.18
2023-06-06T05:05:40.982Z,13.23
2023-06-06T05:08:13.347Z,13.14
2023-06-06T05:10:45.714Z,13.12
2023-06-06T05:13:18.752Z,13.21
2023-06-06T05:15:51.123Z,13.22
2023-06-06T05:18:24.621Z,13.31
2023-06-06T05:21:00.851Z,13.41
2023-06-06T05:23:33.341Z,13.37
2023-06-06T05:26:05.833Z,13.45
2023-06-06T05:28:39.701Z,13.51
2023-06-06T05:31:17.137Z,13.52
2023-06-06T05:33:49.544Z,13.63
2023-06-06T05:36:22.116Z,13.62
2023-06-06T05:38:54.968Z,13.64
2023-06-06T05:41:27.426Z,13.63
2023-06-06T05:44:00.453Z,13.58
2023-06-06T05:46:33.928Z,13.62
2023-06-06T05:49:06.282Z,13.76
2023-06-06T05:51:38.686Z,13.86
2023-06-06T05:54:17.369Z,13.89
2023-06-06T05:56:50.815Z,13.94
2023-06-06T05:59:23.897Z,13.99
2023-06-06T06:01:56.278Z,14.03
2023-06-06T06:04:30.583Z,14.19
2023-06-06T06:07:03.595Z,14.29
2023-06-06T06:09:35.997Z,14.46
2023-06-06T06:12:09.069Z,14.50
2023-06-06T06:14:42.096Z,14.56
2023-06-06T06:17:14.597Z,14.74
2023-06-06T06:19:46.980Z,14.97
2023-06-06T06:22:19.340Z,15.09
2023-06-06T06:24:52.077Z,15.22
2023-06-06T06:27:24.975Z,15.33
2023-06-06T06:29:58.103Z,15.45
2023-06-06T06:32:30.592Z,15.56
2023-06-06T06:35:04.435Z,15.68
2023-06-06T06:37:37.816Z,15.79
2023-06-06T06:40:11.108Z,15.96
2023-06-06T06:42:44.547Z,16.06
2023-06-06T06:45:35.335Z,16.19
2023-06-06T06:48:07.739Z,16.31
2023-06-06T06:50:40.765Z,16.47
2023-06-06T06:53:14.160Z,16.56
2023-06-06T06:55:46.505Z,16.69
2023-06-06T06:58:25.582Z,16.91
2023-06-06T07:00:58.959Z,16.86
2023-06-06T07:03:34.554Z,16.97
2023-06-06T07:06:08.283Z,17.06
2023-06-06T07:08:42.025Z,17.16
2023-06-06T07:11:14.407Z,17.26
2023-06-06T07:13:46.735Z,17.37
2023-06-06T07:16:20.667Z,17.41
2023-06-06T07:18:53.645Z,17.53
2023-06-06T07:21:26.258Z,17.71
2023-06-06T07:23:58.756Z,17.88
2023-06-06T07:26:31.164Z,17.97
2023-06-06T07:29:04.024Z,18.16
2023-06-06T07:31:38.346Z,18.15
2023-06-06T07:34:10.868Z,18.37
2023-06-06T07:37:02.685Z,18.56
2023-06-06T07:39:35.011Z,18.55
2023-06-06T07:42:07.839Z,18.59
2023-06-06T07:44:40.254Z,18.55
2023-06-06T07:47:31.908Z,18.62
2023-06-06T07:50:18.284Z,18.76
2023-06-06T07:52:50.620Z,18.77
2023-06-06T07:55:25.234Z,18.93
2023-06-06T07:57:57.713Z,19.14
2023-06-06T08:00:49.983Z,19.31
2023-06-06T08:03:23.021Z,19.37
2023-06-06T08:05:55.494Z,19.53
2023-06-06T08:08:27.864Z,19.61
2023-06-06T08:11:00.151Z,19.66
2023-06-06T08:13:32.946Z,19.90
2023-06-06T08:16:05.851Z,20.09
2023-06-06T08:18:39.479Z,20.17
2023-06-06T08:21:12.694Z,20.16
2023-06-06T08:23:45.399Z,20.24
2023-06-06T08:26:17.812Z,20.38
2023-06-06T08:28:53.146Z,20.60
2023-06-06T08:31:25.649Z,20.68
2023-06-06T08:33:58.693Z,20.69
2023-06-06T08:36:31.039Z,20.88
2023-06-06T08:39:06.695Z,20.93
2023-06-06T08:41:43.325Z,20.97
2023-06-06T08:44:15.733Z,21.11
2023-06-06T08:46:51.432Z,20.92
2023-06-06T08:49:27.415Z,21.06
2023-06-06T08:52:01.684Z,21.12
2023-06-06T08:54:34.775Z,21.23
2023-06-06T08:57:08.410Z,21.49
2023-06-06T08:59:41.943Z,21.55
2023-06-06T09:02:14.408Z,21.52
2023-06-06T09:04:48.744Z,21.54
2023-06-06T09:07:21.178Z,21.54
2023-06-06T09:09:54.001Z,21.64
2023-06-06T09:12:26.351Z,21.86
2023-06-06T09:14:58.674Z,21.94
2023-06-06T09:17:35.945Z,21.66
2023-06-06T09:20:11.434Z,21.80
2023-06-06T09:22:46.143Z,22.04
2023-06-06T09:25:19.762Z,22.20
2023-06-06T09:27:58.836Z,22.29
2023-06-06T09:30:32.449Z,22.73
2023-06-06T09:33:05.480Z,22.50
2023-06-06T09:35:43.844Z,22.37
2023-06-06T09:38:17.716Z,22.65
2023-06-06T09:40:51.762Z,22.87
2023-06-06T09:43:25.264Z,23.06
2023-06-06T09:45:59.227Z,23.15
2023-06-06T09:48:31.743Z,23.32
2023-06-06T09:51:06.336Z,23.68
2023-06-06T09:53:41.013Z,23.76
2023-06-06T09:56:14.232Z,23.71
2023-06-06T09:58:51.607Z,23.83
2023-06-06T10:01:28.603Z,24.03
2023-06-06T10:04:01.911Z,24.04
2023-06-06T10:06:35.634Z,24.29
2023-06-06T10:09:08.303Z,24.57
2023-06-06T10:11:41.049Z,24.62
2023-06-06T10:14:15.397Z,24.90
2023-06-06T10:16:48.822Z,24.39
2023-06-06T10:19:26.060Z,24.25
2023-06-06T10:22:01.368Z,24.23
2023-06-06T10:24:36.235Z,24.06
2023-06-06T10:27:18.659Z,23.94
2023-06-06T10:29:59.661Z,24.17
2023-06-06T10:32:45.238Z,24.22
2023-06-06T10:35:19.833Z,24.08
2023-06-06T10:38:03.182Z,24.04
2023-06-06T10:40:43.478Z,24.02
2023-06-06T10:43:33.642Z,24.05
2023-06-06T10:46:06.231Z,23.85
2023-06-06T10:48:39.202Z,23.66
2023-06-06T10:51:29.187Z,23.57
2023-06-06T10:54:16.147Z,23.44
2023-06-06T10:56:51.674Z,23.55
2023-06-06T10:59:28.558Z,23.63
2023-06-06T11:02:01.496Z,23.51
2023-06-06T11:04:39.172Z,23.22
2023-06-06T11:07:16.921Z,23.38
2023-06-06T11:09:51.090Z,23.37
2023-06-06T11:12:25.038Z,23.07
2023-06-06T11:14:58.409Z,22.94
2023-06-06T11:17:43.823Z,22.89
2023-06-06T11:20:19.878Z,23.04
2023-06-06T11:22:59.873Z,22.98
2023-06-06T11:25:35.904Z,22.78
2023-06-06T11:28:09.376Z,22.73
2023-06-06T11:30:41.805Z,22.66
2023-06-06T11:33:14.872Z,22.72
2023-06-06T11:35:47.372Z,22.81
2023-06-06T11:38:19.942Z,22.78
2023-06-06T11:40:52.960Z,22.70
2023-06-06T11:43:25.642Z,22.77
2023-06-06T11:46:04.313Z,22.89
2023-06-06T11:48:37.790Z,23.10
2023-06-06T11:51:11.559Z,23.36
2023-06-06T11:53:44.103Z,23.33
2023-06-06T11:56:17.564Z,23.23
2023-06-06T11:58:49.902Z,23.40
2023-06-06T12:01:22.338Z,23.39
2023-06-06T12:03:54.956Z,23.58
2023-06-06T12:06:29.125Z,23.97
2023-06-06T12:09:03.711Z,24.11
2023-06-06T12:11:36.722Z,24.02
2023-06-06T12:14:11.599Z,24.02
2023-06-06T12:16:44.016Z,23.87
2023-06-06T12:19:17.253Z,23.75
2023-06-06T12:21:51.403Z,23.98
2023-06-06T12:24:25.237Z,23.80
2023-06-06T12:27:01.088Z,23.83
2023-06-06T12:29:36.482Z,23.57
2023-06-06T12:32:16.446Z,23.59
2023-06-06T12:34:50.164Z,23.42
2023-06-06T12:37:25.287Z,23.35
2023-06-06T12:39:57.630Z,23.70
2023-06-06T12:42:30.702Z,24.02
2023-06-06T12:45:03.543Z,24.24
2023-06-06T12:47:36.262Z,23.76
2023-06-06T12:50:11.222Z,23.79
2023-06-06T12:52:44.025Z,24.09
2023-06-06T12:55:17.613Z,24.16
2023-06-06T12:57:51.365Z,23.98
2023-06-06T13:00:23.746Z,23.73
2023-06-06T13:02:56.419Z,23.65
2023-06-06T13:05:28.825Z,23.65
2023-06-06T13:08:01.431Z,23.55
2023-06-06T13:10:34.925Z,23.49
2023-06-06T13:13:07.996Z,23.55
2023-06-06T13:15:40.801Z,23.55
2023-06-06T13:18:13.845Z,23.42
2023-06-06T13:20:46.524Z,23.37
2023-06-06T13:23:19.020Z,23.53
2023-06-06T13:25:51.753Z,23.82
2023-06-06T13:28:25.045Z,23.87
2023-06-06T13:30:57.593Z,23.86
2023-06-06T13:33:30.325Z,23.63
2023-06-06T13:36:03.193Z,23.25
2023-06-06T13:38:35.709Z,23.10
2023-06-06T13:41:08.243Z,23.10
2023-06-06T13:43:41.267Z,22.98
2023-06-06T13:46:14.421Z,22.82
2023-06-06T13:48:49.523Z,22.76
2023-06-06T13:51:21.932Z,22.86
2023-06-06T13:53:54.272Z,22.82
2023-06-06T13:56:27.866Z,22.76
2023-06-06T13:59:01.100Z,22.84
2023-06-06T14:01:33.905Z,22.82
2023-06-06T14:04:06.548Z,22.62
2023-06-06T14:06:39.225Z,22.51
2023-06-06T14:09:14.853Z,22.46
2023-06-06T14:11:47.994Z,22.34
2023-06-06T14:14:20.989Z,22.45
2023-06-06T14:16:53.374Z,22.43
2023-06-06T14:19:35.490Z,22.39
2023-06-06T14:22:21.238Z,22.31
2023-06-06T14:24:54.839Z,22.21
2023-06-06T14:27:29.589Z,22.09
2023-06-06T14:30:05.517Z,21.94
2023-06-06T14:35:10.979Z,21.75
2023-06-06T14:37:43.365Z,21.66
2023-06-06T14:40:16.082Z,21.54
2023-06-06T14:42:54.507Z,21.49
2023-06-06T14:46:03.222Z,21.56
2023-06-06T14:48:49.357Z,21.42
2023-06-06T14:51:21.712Z,21.40
2023-06-06T14:53:54.048Z,21.42
2023-06-06T14:56:27.382Z,21.46
2023-06-06T14:58:59.944Z,21.61
2023-06-06T15:01:35.212Z,21.71
2023-06-06T15:04:07.639Z,21.51
2023-06-06T15:06:40.950Z,21.59
2023-06-06T15:09:13.492Z,21.56
2023-06-06T15:11:48.205Z,21.52
2023-06-06T15:14:20.802Z,21.48
2023-06-06T15:16:54.306Z,21.28
2023-06-06T15:19:26.792Z,21.22
2023-06-06T15:22:01.554Z,21.02
2023-06-06T15:24:34.047Z,20.96
2023-06-06T15:27:06.789Z,20.91
2023-06-06T15:29:42.902Z,20.91
2023-06-06T15:32:16.336Z,20.93
2023-06-06T15:34:48.716Z,20.94
2023-06-06T15:37:21.472Z,20.84
2023-06-06T15:39:53.843Z,20.87
2023-06-06T15:42:26.247Z,20.77
2023-06-06T15:44:58.908Z,20.82
2023-06-06T15:47:32.628Z,20.85
2023-06-06T15:50:05.797Z,20.86
2023-06-06T15:52:38.150Z,20.89
2023-06-06T15:55:11.357Z,20.86
2023-06-06T15:57:43.626Z,20.93
2023-06-06T16:00:16.780Z,20.98
2023-06-06T16:02:50.168Z,21.01
2023-06-06T16:05:22.510Z,21.00
2023-06-06T16:07:54.892Z,20.98
2023-06-06T16:10:27.275Z,21.03
2023-06-06T16:12:59.707Z,21.00
2023-06-06T16:15:32.030Z,20.97
2023-06-06T16:18:05.278Z,21.00
2023-06-06T16:20:44.950Z,20.95
2023-06-06T16:23:17.302Z,21.11
2023-06-06T16:25:50.401Z,21.18
2023-06-06T16:28:24.055Z,21.22
2023-06-06T16:30:56.484Z,21.22
2023-06-06T16:33:29.550Z,21.25
2023-06-06T16:36:01.918Z,21.29
2023-06-06T16:38:34.253Z,21.27
2023-06-06T16:41:06.657Z,21.24
2023-06-06T16:43:39.044Z,21.17
2023-06-06T16:46:11.721Z,21.20
2023-06-06T16:48:44.777Z,21.25
2023-06-06T16:51:17.162Z,21.23
2023-06-06T16:53:49.526Z,21.17
2023-06-06T16:56:23.048Z,21.12
2023-06-06T16:58:55.450Z,21.09
2023-06-06T17:01:27.950Z,21.02
2023-06-06T17:04:02.247Z,20.95
2023-06-06T17:06:34.683Z,20.85
2023-06-06T17:09:08.512Z,20.80
2023-06-06T17:11:40.844Z,20.72
2023-06-06T17:14:13.176Z,20.59
2023-06-06T17:16:46.981Z,20.57
2023-06-06T17:19:20.365Z,20.60
2023-06-06T17:21:52.797Z,20.56
2023-06-06T17:24:25.171Z,20.53
2023-06-06T17:26:57.495Z,20.47
2023-06-06T17:29:29.949Z,20.43
2023-06-06T17:32:02.366Z,20.32
2023-06-06T17:34:35.889Z,20.28
2023-06-06T17:37:08.254Z,20.15
2023-06-06T17:39:41.080Z,20.08
2023-06-06T17:42:15.064Z,20.11
2023-06-06T17:44:47.611Z,20.08
2023-06-06T17:47:20.148Z,19.99
2023-06-06T17:49:53.590Z,19.90
2023-06-06T17:52:26.150Z,19.77
2023-06-06T17:54:59.506Z,19.69
2023-06-06T17:57:32.161Z,19.68
2023-06-06T18:00:06.846Z,19.65
2023-06-06T18:02:40.748Z,19.66
2023-06-06T18:05:27.804Z,19.68
2023-06-06T18:08:06.156Z,19.70
2023-06-06T18:10:38.509Z,19.69
2023-06-06T18:13:10.833Z,19.53
2023-06-06T18:15:43.663Z,19.49
2023-06-06T18:18:16.308Z,19.44
2023-06-06T18:20:51.027Z,19.36
2023-06-06T18:23:23.689Z,19.27
2023-06-06T18:25:56.541Z,19.22
2023-06-06T18:28:28.849Z,19.20
2023-06-06T18:31:01.647Z,19.27
2023-06-06T18:33:34.049Z,19.24
2023-06-06T18:36:07.343Z,19.16
2023-06-06T18:38:39.703Z,19.10
2023-06-06T18:41:12.029Z,18.98
2023-06-06T18:43:44.494Z,18.90
2023-06-06T18:46:16.954Z,18.82
2023-06-06T18:48:49.347Z,18.72
2023-06-06T18:51:22.397Z,18.68
2023-06-06T18:53:54.765Z,18.56
2023-06-06T18:56:27.362Z,18.57
2023-06-06T18:59:05.659Z,18.50
2023-06-06T19:01:38.016Z,18.51
2023-06-06T19:04:10.538Z,18.46
2023-06-06T19:06:43.577Z,18.44
2023-06-06T19:09:15.999Z,18.30
2023-06-06T19:11:48.439Z,18.24
2023-06-06T19:14:21.033Z,18.36
2023-06-06T19:16:53.336Z,18.39
2023-06-06T19:19:27.657Z,18.35
2023-06-06T19:22:02.780Z,18.40
2023-06-06T19:24:35.194Z,18.36
2023-06-06T19:27:07.750Z,18.33
2023-06-06T19:29:40.109Z,18.30
2023-06-06T19:32:12.548Z,18.21
2023-06-06T19:34:45.177Z,18.15
2023-06-06T19:37:18.256Z,18.16
2023-06-06T19:39:52.919Z,18.22
2023-06-06T19:42:25.458Z,18.19
2023-06-06T19:44:57.819Z,18.16
2023-06-06T19:47:30.214Z,18.19
2023-06-06T19:50:03.547Z,18.10
2023-06-06T19:52:36.915Z,18.05
2023-06-06T19:55:10.268Z,18.01
2023-06-06T19:57:43.237Z,17.92
2023-06-06T20:00:16.502Z,17.89
2023-06-06T20:02:49.032Z,17.83
2023-06-06T20:05:21.526Z,17.65
2023-06-06T20:07:54.582Z,17.55
2023-06-06T20:10:27.046Z,17.50
2023-06-06T20:12:59.465Z,17.41
2023-06-06T20:15:31.866Z,17.37
2023-06-06T20:18:04.363Z,17.30
2023-06-06T20:20:41.654Z,17.27
2023-06-06T20:23:14.833Z,17.24
2023-06-06T20:26:00.934Z,17.19
2023-06-06T20:28:33.667Z,17.08
2023-06-06T20:31:06.472Z,17.09
2023-06-06T20:33:38.934Z,17.14
2023-06-06T20:36:12.222Z,17.02
2023-06-06T20:38:50.362Z,16.97
2023-06-06T20:41:23.259Z,16.87
2023-06-06T20:43:58.637Z,16.83
2023-06-06T20:46:31.119Z,16.68
2023-06-06T20:49:03.719Z,16.64
2023-06-06T20:51:36.646Z,16.62
2023-06-06T20:54:10.139Z,16.60
2023-06-06T20:56:42.567Z,16.55
2023-06-06T20:59:14.946Z,16.37
2023-06-06T21:01:47.392Z,16.29
2023-06-06T21:04:20.897Z,16.29
2023-06-06T21:06:53.522Z,16.26
2023-06-06T21:09:26.606Z,16.15
2023-06-06T21:11:58.951Z,16.12
2023-06-06T21:14:31.846Z,16.14
2023-06-06T21:17:04.816Z,16.16
2023-06-06T21:19:37.649Z,16.14
2023-06-06T21:22:09.975Z,16.07
2023-06-06T21:24:43.041Z,16.08
2023-06-06T21:27:15.854Z,16.14
2023-06-06T21:29:48.551Z,16.15
2023-06-06T21:32:21.017Z,16.12
2023-06-06T21:34:53.426Z,16.03
2023-06-06T21:37:27.370Z,16.02
2023-06-06T21:40:00.596Z,15.95
2023-06-06T21:42:33.338Z,15.89
2023-06-06T21:45:06.693Z,15.88
2023-06-06T21:47:39.192Z,15.74
2023-06-06T21:50:12.337Z,15.74
2023-06-06T21:52:45.056Z,15.68
2023-06-06T21:55:18.213Z,15.67
2023-06-06T21:57:50.790Z,15.71
2023-06-06T22:00:23.310Z,15.76
2023-06-06T22:02:55.794Z,15.75
2023-06-06T22:05:28.253Z,15.75
2023-06-06T22:08:00.998Z,15.78
2023-06-06T22:10:34.024Z,15.48
2023-06-06T22:13:06.455Z,15.63
2023-06-06T22:15:41.239Z,15.55
2023-06-06T22:18:13.654Z,15.59
2023-06-06T22:20:46.153Z,15.56
2023-06-06T22:23:18.585Z,15.50
2023-06-06T22:26:06.802Z,15.57
2023-06-06T22:28:43.869Z,15.54
2023-06-06T22:31:16.347Z,15.46
2023-06-06T22:33:48.762Z,15.45
2023-06-06T22:36:21.159Z,15.41
2023-06-06T22:38:53.622Z,15.43
2023-06-06T22:41:26.971Z,15.44
2023-06-06T22:44:00.256Z,15.37
2023-06-06T22:46:32.902Z,15.32
2023-06-06T22:49:05.324Z,15.30
2023-06-06T22:51:37.765Z,15.33
2023-06-06T22:54:10.184Z,15.33
2023-06-06T22:56:43.212Z,15.32
2023-06-06T22:59:15.635Z,15.40
2023-06-06T23:01:50.198Z,15.35
2023-06-06T23:04:22.571Z,15.31
2023-06-06T23:06:55.108Z,15.39
2023-06-06T23:09:27.486Z,15.41
2023-06-06T23:12:00.977Z,15.38
2023-06-06T23:14:36.831Z,15.36
2023-06-06T23:17:11.860Z,15.32
2023-06-06T23:19:44.304Z,15.25
2023-06-06T23:22:17.686Z,15.18
2023-06-06T23:24:51.325Z,15.21
2023-06-06T23:27:24.340Z,15.26
2023-06-06T23:29:57.597Z,15.22
2023-06-06T23:32:30.330Z,15.16
2023-06-06T23:35:02.911Z,15.16
2023-06-06T23:37:35.348Z,15.16
2023-06-06T23:40:09.266Z,15.16
2023-06-06T23:42:42.310Z,15.23
2023-06-06T23:45:14.773Z,15.22
2023-06-06T23:47:47.136Z,15.19
2023-06-06T23:50:19.647Z,15.17
2023-06-06T23:52:52.057Z,15.14
2023-06-06T23:55:24.403Z,15.04
2023-06-06T23:57:57.458Z,15.13
